< < Back
Terminal Aerodrome Forecast


Current Version              Previous Versions:   1  2  3  4  5  6  7  8  9  

Terminal Aerodrome Forecast

967
FTUS42 KFFC 252300
TAFCSG
TAF
KCSG 252339Z 2600/2624 26008KT P6SM VCSH SCT035 BKN080
     FM260300 VRB03KT P6SM SCT050 SCT080
     FM260900 00000KT 3SM BR FEW060
     FM261400 26006KT P6SM FEW045=

Latest METAR

416
SAUS70 KWBC 260654
MTRCSG
METAR KCSG 260651Z AUTO 00000KT 10SM CLR 25/23 A3001 RMK AO2 SLP155
T02500228


USA.gov is the U.S. government's official web portal to all federal, state and local government web resources and services.